»·PEaware :: SWA789 KSFO-KSAN

SWA789 :: KSFO-KSAN

FLIGHT INFORMATION

Flight Status: Arrived
Operator:
Southwest Airlines
More flights by this operator :: More flights under this callsign
Pilot: Ulrik N. (13596)
Aircraft: BOEING 737-800
(B738)
More flights by this aircraft type
Origin: KSFO San Francisco Intl
United States
Destination: KSAN San Diego Intl-Lindbergh
United States
More flights between these airports :: More routes between these airports
Route: OFFSH1 MCKEY DCT LAX COMIX1
File this flight plan on PilotEdge
Remarks:
Altitude:
(Current/Filed)
39,000ft
Speed:
(Current/Filed)
475kts
Departed: 24-Dec-17 07:50 PM
Arrived: 24-Dec-17 09:02 PM
Distance/Time
Traveled:
388nm/1:12
Distance/Time
To Go:
Arrived

Flight Plot

Page will automatically refresh every two minutes.

Flight plan parsing failed; only flown route is shown


Map Options




Map Legend


Flown Route
Filed Route
Departure Airport
Arrival Airport
Navaid (VOR, NDB)
Fix

Horizontal Profiles

Position Reports

Time Latitude Longitude Heading Altitude Ground
Speed
24-Dec-17 19:37 37.615110 -122.381838 263 20ft 0kts
24-Dec-17 19:38 37.615110 -122.381838 263 20ft 0kts
24-Dec-17 19:39 37.615110 -122.381838 263 20ft 0kts
24-Dec-17 19:40 37.615110 -122.381838 263 20ft 0kts
24-Dec-17 19:41 37.615110 -122.381838 263 20ft 0kts
24-Dec-17 19:42 37.615110 -122.381838 263 20ft 0kts
24-Dec-17 19:43 37.615110 -122.381838 263 20ft 0kts
24-Dec-17 19:44 37.615110 -122.381838 263 20ft 0kts
24-Dec-17 19:45 37.615110 -122.381838 263 20ft 0kts
24-Dec-17 19:46 37.615110 -122.381838 263 20ft 0kts
24-Dec-17 19:47 37.615223 -122.381230 216 20ft 2kts
24-Dec-17 19:48 37.615595 -122.381376 117 20ft 0kts
24-Dec-17 19:49 37.615595 -122.381376 117 20ft 0kts
24-Dec-17 19:50 37.615595 -122.381376 117 20ft 0kts
24-Dec-17 19:51 37.615587 -122.381357 117 20ft 0kts
24-Dec-17 19:52 37.614113 -122.380921 147 20ft 11kts
24-Dec-17 19:53 37.610750 -122.382613 208 20ft 11kts
24-Dec-17 19:54 37.608438 -122.383790 122 20ft 6kts
24-Dec-17 19:55 37.609789 -122.381658 27 20ft 37kts
24-Dec-17 19:56 37.643368 -122.365403 3 1390ft 169kts
24-Dec-17 19:57 37.691801 -122.369768 328 2878ft 203kts
24-Dec-17 19:58 37.703468 -122.423747 248 4262ft 236kts
24-Dec-17 19:59 37.660855 -122.492621 239 6389ft 272kts
24-Dec-17 20:00 37.618159 -122.570903 239 9378ft 270kts
24-Dec-17 20:01 37.574847 -122.650035 238 11571ft 291kts
24-Dec-17 20:02 37.505186 -122.701718 187 13838ft 333kts
24-Dec-17 20:03 37.410543 -122.688204 176 16414ft 355kts
24-Dec-17 20:04 37.311905 -122.663586 175 19105ft 370kts
24-Dec-17 20:05 37.209813 -122.636921 176 21630ft 384kts
24-Dec-17 20:06 37.103990 -122.609149 176 23974ft 398kts
24-Dec-17 20:07 36.994398 -122.580386 175 26188ft 409kts
24-Dec-17 20:08 36.883698 -122.551466 176 28668ft 406kts
24-Dec-17 20:09 36.772294 -122.522761 176 29913ft 430kts
24-Dec-17 20:10 36.670598 -122.496443 175 30664ft 458kts
24-Dec-17 20:11 36.547211 -122.464424 176 32933ft 452kts
24-Dec-17 20:12 36.407805 -122.412382 144 34993ft 483kts
24-Dec-17 20:13 36.325459 -122.278862 132 36500ft 493kts
24-Dec-17 20:14 36.258251 -122.164721 132 37544ft 493kts
24-Dec-17 20:15 36.177230 -122.027656 132 38653ft 493kts
24-Dec-17 20:16 36.083709 -121.870147 133 39206ft 491kts
24-Dec-17 20:17 36.015568 -121.755923 132 39202ft 494kts
24-Dec-17 20:18 35.934184 -121.619976 132 39205ft 493kts
24-Dec-17 20:19 35.853034 -121.484988 132 39210ft 494kts
24-Dec-17 20:20 35.777584 -121.359978 133 39212ft 494kts
24-Dec-17 20:21 35.697185 -121.227085 133 39199ft 493kts
24-Dec-17 20:22 35.615157 -121.092056 133 39200ft 494kts
24-Dec-17 20:23 35.536160 -120.962547 132 39202ft 495kts
24-Dec-17 20:24 35.453507 -120.827559 132 39200ft 496kts
24-Dec-17 20:25 35.372422 -120.695655 132 39197ft 495kts
24-Dec-17 20:26 35.289606 -120.561486 132 39198ft 496kts
24-Dec-17 20:27 35.206339 -120.427123 132 39200ft 496kts
24-Dec-17 20:28 35.126760 -120.299142 133 39185ft 495kts
24-Dec-17 20:29 35.043626 -120.165802 133 39188ft 495kts
24-Dec-17 20:30 34.960590 -120.033172 132 39190ft 489kts
24-Dec-17 20:31 34.878941 -119.903278 132 39195ft 484kts
24-Dec-17 20:32 34.797027 -119.773442 132 39174ft 483kts
24-Dec-17 20:33 34.715351 -119.644480 132 39143ft 483kts
24-Dec-17 20:34 34.633323 -119.515451 132 39143ft 484kts
24-Dec-17 20:35 34.551211 -119.386770 132 39149ft 483kts
24-Dec-17 20:36 34.470868 -119.261207 132 39143ft 483kts
24-Dec-17 20:37 34.388375 -119.132713 132 39144ft 483kts
24-Dec-17 20:38 34.306141 -119.005100 132 39145ft 482kts
24-Dec-17 20:39 34.223991 -118.878093 132 39147ft 480kts
24-Dec-17 20:40 34.143857 -118.754612 132 38317ft 472kts
24-Dec-17 20:41 34.060050 -118.626080 132 36064ft 497kts
24-Dec-17 20:42 33.980244 -118.496169 135 33673ft 473kts
24-Dec-17 20:43 33.895228 -118.383065 137 31436ft 452kts
24-Dec-17 20:44 33.817999 -118.282944 137 29396ft 435kts
24-Dec-17 20:45 33.737983 -118.178738 136 27186ft 419kts
24-Dec-17 20:46 33.662352 -118.079616 136 25178ft 413kts
24-Dec-17 20:47 33.584077 -117.977045 136 23128ft 401kts
24-Dec-17 20:48 33.508378 -117.883797 140 21136ft 386kts
24-Dec-17 20:49 33.432695 -117.796209 138 19174ft 374kts
24-Dec-17 20:50 33.360969 -117.708699 137 17283ft 364kts
24-Dec-17 20:51 33.291500 -117.624151 137 15429ft 352kts
24-Dec-17 20:52 33.218077 -117.550942 148 13646ft 339kts
24-Dec-17 20:53 33.141914 -117.487590 147 12127ft 331kts
24-Dec-17 20:54 33.069141 -117.426890 146 10808ft 312kts
24-Dec-17 20:55 32.999093 -117.368252 145 9526ft 305kts
24-Dec-17 20:56 32.932468 -117.312392 145 8219ft 287kts
24-Dec-17 20:57 32.872550 -117.262460 145 7523ft 255kts
24-Dec-17 20:58 32.817633 -117.215821 132 6901ft 235kts
24-Dec-17 20:59 32.796563 -117.143611 104 6448ft 228kts
24-Dec-17 21:00 32.781279 -117.075149 104 6017ft 211kts
24-Dec-17 21:01 32.765286 -117.008318 105 5166ft 206kts
24-Dec-17 21:02 32.737401 -116.954173 152 4284ft 191kts
24-Dec-17 21:03 32.698618 -116.977545 253 3533ft 178kts
24-Dec-17 21:04 32.696224 -117.034750 286 2752ft 176kts
24-Dec-17 21:05 32.708867 -117.087283 289 1895ft 155kts
24-Dec-17 21:06 32.720627 -117.133208 283 976ft 143kts
24-Dec-17 21:07 32.730950 -117.178934 287 80ft 145kts
24-Dec-17 21:08 32.733672 -117.195380 195 20ft 7kts

Navigation Log

Ident Type
Flight plan parsing failed, navigation log unavailable